South Littleton, United Kingdom
Current Conditions -  °F | °C
As of 2:50 PM on Tuesday 21 Oct 2014 (Local Time) from EGBJ Reporting Station
Few Clouds Few Clouds  
Wind Chill: 55°   Ceiling: Unl
Heat Index: 55°   Visibility: 6mi
Dew Point: 41°   Wind: 24mph
Humidity: 58%   Direction: 280°W
Pressure: 29.83"   Gusts: 38mph
Location:  52.11°N, 1.89°W
Report Text: EGBJ 211350Z 28021G33KT 9999 FEW028 13/05 Q1010
Loading
Personal Weather Stations






























Interactive Weather Map
Tropical Storm Tracking
New forecast layout! Learn more

10-Day Weather Forecast

Advertisements
Track Severe Weather on mobile